createdAt,value
2023-03-14T00:04:00.566Z,8.60
2023-03-14T00:09:03.913Z,9.90
2023-03-14T00:14:06.420Z,11.00
2023-03-14T00:19:09.337Z,11.40
2023-03-14T00:24:11.856Z,10.80
2023-03-14T00:29:14.306Z,9.60
2023-03-14T00:34:16.817Z,8.00
2023-03-14T00:39:19.382Z,7.40
2023-03-14T00:44:21.893Z,9.20
2023-03-14T00:49:24.527Z,8.70
2023-03-14T00:54:27.103Z,7.70
2023-03-14T00:59:29.623Z,9.50
2023-03-14T01:04:32.227Z,10.70
2023-03-14T01:09:34.933Z,11.90
2023-03-14T01:14:37.769Z,8.50
2023-03-14T01:19:40.732Z,8.00
2023-03-14T01:24:43.363Z,6.40
2023-03-14T01:29:45.906Z,8.30
2023-03-14T01:34:48.413Z,11.80
2023-03-14T01:39:50.964Z,10.10
2023-03-14T01:44:58.660Z,8.80
2023-03-14T01:50:06.555Z,8.50
2023-03-14T01:55:22.418Z,8.10
2023-03-14T02:00:25.085Z,8.80
2023-03-14T02:05:31.289Z,9.00
2023-03-14T02:10:39.755Z,7.70
2023-03-14T02:15:42.970Z,7.90
2023-03-14T02:20:56.169Z,13.70
2023-03-14T02:26:04.360Z,7.70
2023-03-14T02:31:07.056Z,6.60
2023-03-14T02:36:14.750Z,8.40
2023-03-14T02:41:17.852Z,11.30
2023-03-14T02:46:22.217Z,10.90
2023-03-14T02:51:26.779Z,8.20
2023-03-14T02:56:29.305Z,4.70
2023-03-14T03:01:31.815Z,9.10
2023-03-14T03:06:34.353Z,7.10
2023-03-14T03:11:36.874Z,9.00
2023-03-14T03:16:39.428Z,7.50
2023-03-14T03:21:41.932Z,7.90
2023-03-14T03:26:44.426Z,8.20
2023-03-14T03:31:46.988Z,6.60
2023-03-14T03:36:49.506Z,6.40
2023-03-14T03:41:52.004Z,6.90
2023-03-14T03:46:54.544Z,9.70
2023-03-14T03:51:57.428Z,8.60
2023-03-14T03:56:59.920Z,8.50
2023-03-14T04:02:02.610Z,7.00
2023-03-14T04:07:05.879Z,7.60
2023-03-14T04:12:08.448Z,7.60
2023-03-14T04:17:10.948Z,8.10
2023-03-14T04:22:13.473Z,8.50
2023-03-14T04:27:16.011Z,8.70
2023-03-14T04:32:18.621Z,16.20
2023-03-14T04:37:21.263Z,9.20
2023-03-14T04:42:23.793Z,7.80
2023-03-14T04:47:26.250Z,8.40
2023-03-14T04:52:29.167Z,8.50
2023-03-14T04:57:31.682Z,8.20
2023-03-14T05:02:35.396Z,10.40
2023-03-14T05:07:38.043Z,10.20
2023-03-14T05:12:40.548Z,9.10
2023-03-14T05:17:43.070Z,9.80
2023-03-14T05:22:45.554Z,11.80
2023-03-14T05:27:48.243Z,9.50
2023-03-14T05:32:50.802Z,9.30
2023-03-14T05:37:53.452Z,6.30
2023-03-14T05:42:55.966Z,9.60
2023-03-14T05:47:58.538Z,12.60
2023-03-14T05:53:01.058Z,12.20
2023-03-14T05:58:03.666Z,8.30
2023-03-14T06:03:07.665Z,9.20
2023-03-14T06:08:10.279Z,9.00
2023-03-14T06:13:12.849Z,8.00
2023-03-14T06:18:15.360Z,8.60
2023-03-14T06:23:17.868Z,8.50
2023-03-14T06:28:20.424Z,7.80
2023-03-14T06:33:22.910Z,9.90
2023-03-14T06:38:25.509Z,9.20
2023-03-14T06:43:28.018Z,9.30
2023-03-14T06:48:30.524Z,12.40
2023-03-14T06:53:33.215Z,7.80
2023-03-14T06:58:36.016Z,12.60
2023-03-14T07:03:38.568Z,14.00
2023-03-14T07:08:42.786Z,6.40
2023-03-14T07:13:45.287Z,9.00
2023-03-14T07:18:47.866Z,10.30
2023-03-14T07:23:50.626Z,11.70
2023-03-14T07:28:53.301Z,11.60
2023-03-14T07:33:56.559Z,11.90
2023-03-14T07:38:59.049Z,10.60
2023-03-14T07:44:01.777Z,9.80
2023-03-14T07:49:04.353Z,13.10
2023-03-14T07:54:06.883Z,11.40
2023-03-14T07:59:09.837Z,9.20
2023-03-14T08:04:12.393Z,9.00
2023-03-14T08:09:16.302Z,7.60
2023-03-14T08:14:18.789Z,11.40
2023-03-14T08:19:21.783Z,8.40
2023-03-14T08:24:24.389Z,9.00
2023-03-14T08:29:27.266Z,9.80
2023-03-14T08:34:29.794Z,9.80
2023-03-14T08:39:32.273Z,9.10
2023-03-14T08:44:34.856Z,8.80
2023-03-14T08:49:37.383Z,9.10
2023-03-14T08:54:39.893Z,8.30
2023-03-14T08:59:42.428Z,10.50
2023-03-14T09:04:44.933Z,8.00
2023-03-14T09:09:47.522Z,9.20
2023-03-14T09:14:50.081Z,8.90
2023-03-14T09:19:52.566Z,8.00
2023-03-14T09:24:55.048Z,8.30
2023-03-14T09:29:57.613Z,10.10
2023-03-14T09:35:00.201Z,9.20
2023-03-14T09:40:10.412Z,10.30
2023-03-14T09:45:21.187Z,10.40
2023-03-14T09:50:26.868Z,9.40
2023-03-14T09:55:29.382Z,9.90
2023-03-14T10:00:33.097Z,9.80
2023-03-14T10:05:35.969Z,10.20
2023-03-14T10:10:39.307Z,8.30
2023-03-14T10:15:42.389Z,11.00
2023-03-14T10:20:47.968Z,14.40
2023-03-14T10:26:07.368Z,9.00
2023-03-14T10:31:10.002Z,9.20
2023-03-14T10:36:21.952Z,10.60
2023-03-14T10:41:27.305Z,11.30
2023-03-14T10:46:33.296Z,12.40
2023-03-14T10:51:35.872Z,10.50
2023-03-14T10:56:38.553Z,7.80
2023-03-14T11:01:56.503Z,10.60
2023-03-14T11:07:21.889Z,10.80
2023-03-14T11:12:57.578Z,9.40
2023-03-14T11:18:25.154Z,8.80
2023-03-14T11:23:51.414Z,8.20
2023-03-14T11:28:59.522Z,9.20
2023-03-14T11:34:13.910Z,8.30
2023-03-14T11:39:18.792Z,7.10
2023-03-14T11:44:31.069Z,6.40
2023-03-14T11:49:47.522Z,7.90
2023-03-14T11:54:56.281Z,8.80
2023-03-14T12:00:13.666Z,9.90
2023-03-14T12:05:19.498Z,8.20
2023-03-14T12:10:22.238Z,9.00
2023-03-14T12:15:25.826Z,8.90
2023-03-14T12:20:28.770Z,10.60
2023-03-14T12:25:34.167Z,8.80
2023-03-14T12:30:40.966Z,8.20
2023-03-14T12:35:50.213Z,8.80
2023-03-14T12:41:01.386Z,9.70
2023-03-14T12:46:22.863Z,9.80
2023-03-14T12:51:46.771Z,11.20
2023-03-14T12:57:05.776Z,7.20
2023-03-14T13:02:08.237Z,8.10
2023-03-14T13:07:58.023Z,7.90
2023-03-14T13:13:09.705Z,14.60
2023-03-14T13:18:28.125Z,12.00
2023-03-14T13:23:36.922Z,9.20
2023-03-14T13:28:39.557Z,11.70
2023-03-14T13:33:42.042Z,11.40
2023-03-14T13:38:44.583Z,13.10
2023-03-14T13:43:47.128Z,11.20
2023-03-14T13:48:58.754Z,10.30
2023-03-14T13:54:02.071Z,10.60
2023-03-14T13:59:04.558Z,9.80
2023-03-14T14:04:17.571Z,11.20
2023-03-14T14:09:39.167Z,13.90
2023-03-14T14:14:50.339Z,13.90
2023-03-14T14:19:54.367Z,9.80
2023-03-14T14:24:57.200Z,11.40
2023-03-14T14:30:28.125Z,10.10
2023-03-14T14:35:36.012Z,12.30
2023-03-14T14:40:46.573Z,7.10
2023-03-14T14:45:52.887Z,12.40
2023-03-14T14:51:07.190Z,9.30
2023-03-14T14:56:23.356Z,10.50
2023-03-14T15:01:33.351Z,12.20
2023-03-14T15:06:36.073Z,12.60
2023-03-14T15:11:38.724Z,13.40
2023-03-14T15:16:41.994Z,16.50
2023-03-14T15:21:44.791Z,11.10
2023-03-14T15:26:47.363Z,10.80
2023-03-14T15:31:49.881Z,12.60
2023-03-14T15:36:52.474Z,12.50
2023-03-14T15:41:54.969Z,15.60
2023-03-14T15:46:57.611Z,11.70
2023-03-14T15:52:00.223Z,13.10
2023-03-14T15:57:02.800Z,17.70
2023-03-14T16:02:05.476Z,13.40
2023-03-14T16:07:08.183Z,14.90
2023-03-14T16:12:10.751Z,12.60
2023-03-14T16:17:13.440Z,12.70
2023-03-14T16:22:16.063Z,11.70
2023-03-14T16:27:18.605Z,13.00
2023-03-14T16:32:21.288Z,15.40
2023-03-14T16:37:25.111Z,16.60
2023-03-14T16:42:27.871Z,12.10
2023-03-14T16:47:31.153Z,13.70
2023-03-14T16:52:33.843Z,13.20
2023-03-14T16:57:36.351Z,20.10
2023-03-14T17:02:38.973Z,13.00
2023-03-14T17:07:41.809Z,14.10
2023-03-14T17:12:45.580Z,10.30
2023-03-14T17:17:48.081Z,11.30
2023-03-14T17:22:50.619Z,16.30
2023-03-14T17:27:53.354Z,16.60
2023-03-14T17:32:57.526Z,13.60
2023-03-14T17:38:01.572Z,14.00
2023-03-14T17:43:04.068Z,13.60
2023-03-14T17:48:06.616Z,14.60
2023-03-14T17:53:09.253Z,13.60
2023-03-14T17:58:12.781Z,13.60
2023-03-14T18:03:15.366Z,12.10
2023-03-14T18:08:17.888Z,15.40
2023-03-14T18:13:20.787Z,13.60
2023-03-14T18:18:23.309Z,13.40
2023-03-14T18:23:25.831Z,16.30
2023-03-14T18:28:29.126Z,12.80
2023-03-14T18:33:37.636Z,12.70
2023-03-14T18:38:46.080Z,13.60
2023-03-14T18:43:49.215Z,13.10
2023-03-14T18:48:56.329Z,14.70
2023-03-14T18:54:08.840Z,14.20
2023-03-14T18:59:13.998Z,14.00
2023-03-14T19:04:18.638Z,15.80
2023-03-14T19:09:21.630Z,18.00
2023-03-14T19:14:24.119Z,15.50
2023-03-14T19:19:26.668Z,12.00
2023-03-14T19:24:29.252Z,16.20
2023-03-14T19:29:32.252Z,10.10
2023-03-14T19:34:35.070Z,14.10
2023-03-14T19:39:37.661Z,13.20
2023-03-14T19:44:40.234Z,19.50
2023-03-14T19:49:42.752Z,12.50
2023-03-14T19:54:46.313Z,14.00
2023-03-14T19:59:48.837Z,11.60
2023-03-14T20:04:54.465Z,12.10
2023-03-14T20:09:56.963Z,17.30
2023-03-14T20:14:59.499Z,12.00
2023-03-14T20:20:02.687Z,15.80
2023-03-14T20:25:06.552Z,14.90
2023-03-14T20:30:12.963Z,16.80
2023-03-14T20:35:23.413Z,15.70
2023-03-14T20:40:28.772Z,10.80
2023-03-14T20:45:31.435Z,12.80
2023-03-14T20:50:34.128Z,16.50
2023-03-14T20:55:37.284Z,19.30
2023-03-14T21:00:41.162Z,15.00
2023-03-14T21:05:49.038Z,16.60
2023-03-14T21:10:53.734Z,19.00
2023-03-14T21:16:00.083Z,16.70
2023-03-14T21:21:02.650Z,19.90
2023-03-14T21:26:05.370Z,12.90
2023-03-14T21:31:11.630Z,14.70
2023-03-14T21:36:14.657Z,14.90
2023-03-14T21:41:17.654Z,14.50
2023-03-14T21:46:20.215Z,16.00
2023-03-14T21:51:31.127Z,12.80
2023-03-14T21:56:33.679Z,10.60
2023-03-14T22:01:36.954Z,4.70
2023-03-14T22:06:39.877Z,2.70
2023-03-14T22:11:44.855Z,1.40
2023-03-14T22:16:48.367Z,1.00
2023-03-14T22:21:50.943Z,3.50
2023-03-14T22:26:57.238Z,2.60
2023-03-14T22:32:01.638Z,5.20
2023-03-14T22:37:09.604Z,2.50
2023-03-14T22:42:17.130Z,3.20
2023-03-14T22:47:21.493Z,4.50
2023-03-14T22:52:24.152Z,5.40
2023-03-14T22:57:29.074Z,3.70
2023-03-14T23:02:31.643Z,4.50
2023-03-14T23:07:34.463Z,4.60
2023-03-14T23:12:36.978Z,2.90
2023-03-14T23:17:39.485Z,2.00
2023-03-14T23:22:42.331Z,1.80
2023-03-14T23:27:46.257Z,2.50
2023-03-14T23:32:48.809Z,3.20
2023-03-14T23:37:51.535Z,6.30
2023-03-14T23:42:54.063Z,4.40
2023-03-14T23:47:57.754Z,2.30
2023-03-14T23:53:00.874Z,4.50
2023-03-14T23:58:03.466Z,2.30
